PRIVATE WETTERSTATION BILLIGHEIM-ALLFELD                       ZURCK
Wetterdaten: Sonntag, 05.02.2017
Datum Zeit Temp. A. Temp. A. min Temp. A. max Feuchte A. Luftdruck Regen Wind Richtung Richtung Sonnenschein ET Solar Taupunkt Windchill Windben Empfang
05.02.2017 00:00 4,5 C 4,4 C 4,5 C 90 % 1003,8 hPa 0,0 l/m 17,7 km/h (3 Bft) SW 225 0 min 0,025 mm 0 W/m 3,0 C -2,8 C 43,5 km/h (6 Bft) 100 %
05.02.2017 00:10 4,6 C 4,5 C 4,6 C 90 % 1003,9 hPa 0,0 l/m 17,7 km/h (3 Bft) SW 225 0 min 0,000 mm 0 W/m 3,1 C -2,7 C 37,0 km/h (5 Bft) 91 %
05.02.2017 00:20 4,6 C 4,5 C 4,6 C 90 % 1003,9 hPa 0,0 l/m 20,9 km/h (4 Bft) SW 225 0 min 0,000 mm 0 W/m 3,1 C -4,0 C 45,1 km/h (6 Bft) 100 %
05.02.2017 00:30 4,7 C 4,6 C 4,7 C 90 % 1003,9 hPa 0,0 l/m 17,7 km/h (3 Bft) W-SW 247 0 min 0,000 mm 0 W/m 3,2 C -2,6 C 40,2 km/h (6 Bft) 100 %
05.02.2017 00:40 4,7 C 4,6 C 4,7 C 90 % 1003,9 hPa 0,0 l/m 22,5 km/h (4 Bft) SW 225 0 min 0,000 mm 0 W/m 3,2 C -4,5 C 45,1 km/h (6 Bft) 100 %
05.02.2017 00:50 4,7 C 4,6 C 4,7 C 90 % 1003,9 hPa 0,0 l/m 20,9 km/h (4 Bft) W-SW 247 0 min 0,000 mm 0 W/m 3,2 C -3,9 C 43,5 km/h (6 Bft) 100 %
05.02.2017 01:00 4,6 C 4,6 C 4,7 C 90 % 1004,0 hPa 0,0 l/m 20,9 km/h (4 Bft) W-SW 247 0 min 0,025 mm 0 W/m 3,1 C -4,0 C 43,5 km/h (6 Bft) 100 %
05.02.2017 01:10 4,6 C 4,6 C 4,6 C 90 % 1004,0 hPa 0,0 l/m 12,9 km/h (3 Bft) W-SW 247 0 min 0,000 mm 0 W/m 3,1 C -0,2 C 32,2 km/h (5 Bft) 100 %
05.02.2017 01:20 4,6 C 4,6 C 4,6 C 90 % 1004,1 hPa 0,0 l/m 17,7 km/h (3 Bft) W-SW 247 0 min 0,000 mm 0 W/m 3,1 C -2,7 C 41,8 km/h (6 Bft) 100 %
05.02.2017 01:30 4,7 C 4,6 C 4,7 C 90 % 1004,1 hPa 0,0 l/m 17,7 km/h (3 Bft) SW 225 0 min 0,000 mm 0 W/m 3,2 C -2,6 C 35,4 km/h (5 Bft) 100 %
05.02.2017 01:40 4,6 C 4,6 C 4,7 C 90 % 1004,1 hPa 0,0 l/m 12,9 km/h (3 Bft) SW 225 0 min 0,000 mm 0 W/m 3,1 C -0,2 C 33,8 km/h (5 Bft) 99 %
05.02.2017 01:50 4,6 C 4,6 C 4,6 C 90 % 1004,2 hPa 0,0 l/m 12,9 km/h (3 Bft) SW 225 0 min 0,000 mm 0 W/m 3,1 C -0,2 C 27,4 km/h (4 Bft) 100 %
05.02.2017 02:00 4,6 C 4,6 C 4,6 C 90 % 1004,2 hPa 0,0 l/m 11,3 km/h (2 Bft) SW 225 0 min 0,025 mm 0 W/m 3,1 C 0,7 C 29,0 km/h (5 Bft) 100 %
05.02.2017 02:10 4,6 C 4,6 C 4,6 C 89 % 1004,3 hPa 0,0 l/m 14,5 km/h (3 Bft) SW 225 0 min 0,000 mm 0 W/m 2,9 C -1,1 C 30,6 km/h (5 Bft) 91 %
05.02.2017 02:20 4,6 C 4,6 C 4,6 C 89 % 1004,4 hPa 0,0 l/m 16,1 km/h (3 Bft) SW 225 0 min 0,000 mm 0 W/m 2,9 C -2,0 C 32,2 km/h (5 Bft) 100 %
05.02.2017 02:30 4,6 C 4,6 C 4,6 C 88 % 1004,4 hPa 0,0 l/m 14,5 km/h (3 Bft) SW 225 0 min 0,000 mm 0 W/m 2,8 C -1,1 C 33,8 km/h (5 Bft) 100 %
05.02.2017 02:40 4,5 C 4,5 C 4,6 C 89 % 1004,5 hPa 0,0 l/m 14,5 km/h (3 Bft) SW 225 0 min 0,000 mm 0 W/m 2,8 C -1,3 C 35,4 km/h (5 Bft) 100 %
05.02.2017 02:50 4,6 C 4,5 C 4,6 C 89 % 1004,8 hPa 0,0 l/m 16,1 km/h (3 Bft) SW 225 0 min 0,000 mm 0 W/m 2,9 C -2,0 C 30,6 km/h (5 Bft) 100 %
05.02.2017 03:00 4,5 C 4,5 C 4,6 C 89 % 1004,9 hPa 0,0 l/m 12,9 km/h (3 Bft) SW 225 0 min 0,025 mm 0 W/m 2,8 C -0,4 C 27,4 km/h (4 Bft) 100 %
05.02.2017 03:10 4,4 C 4,4 C 4,5 C 89 % 1004,9 hPa 0,0 l/m 11,3 km/h (2 Bft) SW 225 0 min 0,000 mm 0 W/m 2,7 C 0,5 C 25,7 km/h (4 Bft) 100 %
05.02.2017 03:20 4,4 C 4,4 C 4,4 C 90 % 1004,9 hPa 0,0 l/m 9,7 km/h (2 Bft) W-SW 247 0 min 0,000 mm 0 W/m 2,9 C 1,6 C 22,5 km/h (4 Bft) 100 %
05.02.2017 03:30 4,3 C 4,3 C 4,4 C 90 % 1004,9 hPa 0,0 l/m 8,0 km/h (2 Bft) SW 225 0 min 0,000 mm 0 W/m 2,8 C 2,9 C 22,5 km/h (4 Bft) 100 %
05.02.2017 03:40 4,3 C 4,3 C 4,3 C 90 % 1004,9 hPa 0,0 l/m 9,7 km/h (2 Bft) SW 225 0 min 0,000 mm 0 W/m 2,8 C 1,5 C 24,1 km/h (4 Bft) 100 %
05.02.2017 03:50 4,2 C 4,2 C 4,3 C 90 % 1005,0 hPa 0,0 l/m 9,7 km/h (2 Bft) S-SW 202 0 min 0,000 mm 0 W/m 2,7 C 1,4 C 17,7 km/h (3 Bft) 100 %
05.02.2017 04:00 4,1 C 4,1 C 4,2 C 90 % 1005,0 hPa 0,0 l/m 9,7 km/h (2 Bft) SW 225 0 min 0,000 mm 0 W/m 2,6 C 1,3 C 20,9 km/h (4 Bft) 100 %
05.02.2017 04:10 3,9 C 3,9 C 4,1 C 91 % 1004,9 hPa 0,0 l/m 8,0 km/h (2 Bft) SW 225 0 min 0,000 mm 0 W/m 2,6 C 2,4 C 17,7 km/h (3 Bft) 91 %
05.02.2017 04:20 3,8 C 3,8 C 3,9 C 91 % 1004,8 hPa 0,0 l/m 9,7 km/h (2 Bft) SW 225 0 min 0,000 mm 0 W/m 2,5 C 1,0 C 25,7 km/h (4 Bft) 100 %
05.02.2017 04:30 3,7 C 3,7 C 3,8 C 91 % 1004,8 hPa 0,0 l/m 8,0 km/h (2 Bft) SW 225 0 min 0,000 mm 0 W/m 2,4 C 2,2 C 20,9 km/h (4 Bft) 100 %
05.02.2017 04:40 3,6 C 3,6 C 3,7 C 91 % 1004,8 hPa 0,0 l/m 6,4 km/h (2 Bft) W-SW 247 0 min 0,000 mm 0 W/m 2,3 C 3,6 C 25,7 km/h (4 Bft) 100 %
05.02.2017 04:50 3,6 C 3,6 C 3,6 C 91 % 1004,8 hPa 0,0 l/m 4,8 km/h (1 Bft) W-SW 247 0 min 0,000 mm 0 W/m 2,3 C 3,6 C 11,3 km/h (2 Bft) 100 %
05.02.2017 05:00 3,6 C 3,5 C 3,6 C 91 % 1004,8 hPa 0,0 l/m 1,6 km/h (1 Bft) W-SW 247 0 min 0,000 mm 0 W/m 2,3 C 3,6 C 11,3 km/h (2 Bft) 100 %
05.02.2017 05:10 3,3 C 3,3 C 3,6 C 90 % 1004,8 hPa 0,0 l/m 1,6 km/h (1 Bft) W-SW 247 0 min 0,000 mm 0 W/m 1,8 C 3,3 C 6,4 km/h (2 Bft) 100 %
05.02.2017 05:20 3,1 C 3,1 C 3,3 C 90 % 1004,7 hPa 0,0 l/m 0,0 km/h (0 Bft) W-SW 247 0 min 0,000 mm 0 W/m 1,6 C 3,1 C 4,8 km/h (1 Bft) 100 %
05.02.2017 05:30 2,9 C 2,9 C 3,1 C 91 % 1004,6 hPa 0,0 l/m 0,0 km/h (0 Bft) W-SW 247 0 min 0,000 mm 0 W/m 1,6 C 2,9 C 3,2 km/h (1 Bft) 100 %
05.02.2017 05:40 2,7 C 2,7 C 2,9 C 91 % 1004,6 hPa 0,0 l/m 0,0 km/h (0 Bft) W-SW 247 0 min 0,000 mm 0 W/m 1,4 C 2,7 C 4,8 km/h (1 Bft) 100 %
05.02.2017 05:50 2,6 C 2,6 C 2,7 C 91 % 1004,6 hPa 0,0 l/m 3,2 km/h (1 Bft) S 180 0 min 0,000 mm 0 W/m 1,3 C 2,6 C 8,0 km/h (2 Bft) 100 %
05.02.2017 06:00 2,7 C 2,6 C 2,7 C 91 % 1004,3 hPa 0,0 l/m 0,0 km/h (0 Bft) S 180 0 min 0,000 mm 0 W/m 1,4 C 2,7 C 6,4 km/h (2 Bft) 100 %
05.02.2017 06:10 2,5 C 2,5 C 2,7 C 91 % 1004,2 hPa 0,0 l/m 0,0 km/h (0 Bft) N 0 0 min 0,000 mm 0 W/m 1,2 C 2,5 C 0,0 km/h (0 Bft) 100 %
05.02.2017 06:20 2,2 C 2,2 C 2,5 C 92 % 1004,2 hPa 0,0 l/m 0,0 km/h (0 Bft) N 0 0 min 0,000 mm 0 W/m 1,0 C 2,2 C 0,0 km/h (0 Bft) 100 %
05.02.2017 06:30 2,3 C 2,2 C 2,3 C 92 % 1004,3 hPa 0,0 l/m 0,0 km/h (0 Bft) N 0 0 min 0,000 mm 0 W/m 1,1 C 2,3 C 0,0 km/h (0 Bft) 100 %
05.02.2017 06:40 2,3 C 2,3 C 2,3 C 92 % 1004,3 hPa 0,0 l/m 0,0 km/h (0 Bft) S 180 0 min 0,000 mm 0 W/m 1,1 C 2,3 C 4,8 km/h (1 Bft) 100 %
05.02.2017 06:50 2,3 C 2,3 C 2,3 C 92 % 1004,2 hPa 0,0 l/m 0,0 km/h (0 Bft) N 0 0 min 0,000 mm 0 W/m 1,1 C 2,3 C 0,0 km/h (0 Bft) 100 %
05.02.2017 07:00 2,4 C 2,3 C 2,4 C 92 % 1004,1 hPa 0,0 l/m 0,0 km/h (0 Bft) S-SO 157 0 min 0,000 mm 0 W/m 1,2 C 2,4 C 3,2 km/h (1 Bft) 100 %
05.02.2017 07:10 2,2 C 2,2 C 2,4 C 92 % 1004,2 hPa 0,0 l/m 0,0 km/h (0 Bft) N 0 0 min 0,000 mm 0 W/m 1,0 C 2,2 C 0,0 km/h (0 Bft) 100 %
05.02.2017 07:20 1,7 C 1,7 C 2,2 C 92 % 1004,1 hPa 0,0 l/m 0,0 km/h (0 Bft) N 0 0 min 0,000 mm 0 W/m 0,5 C 1,7 C 0,0 km/h (0 Bft) 91 %
05.02.2017 07:30 1,4 C 1,4 C 1,7 C 92 % 1004,1 hPa 0,0 l/m 0,0 km/h (0 Bft) N 0 0 min 0,000 mm 0 W/m 0,2 C 1,4 C 0,0 km/h (0 Bft) 100 %
05.02.2017 07:40 1,0 C 1,0 C 1,4 C 92 % 1003,9 hPa 0,0 l/m 0,0 km/h (0 Bft) N 0 0 min 0,000 mm 0 W/m -0,2 C 1,0 C 0,0 km/h (0 Bft) 100 %
05.02.2017 07:50 0,6 C 0,6 C 1,0 C 92 % 1003,9 hPa 0,0 l/m 0,0 km/h (0 Bft) N 0 0 min 0,000 mm 0 W/m -0,5 C 0,6 C 0,0 km/h (0 Bft) 100 %
05.02.2017 08:00 0,4 C 0,4 C 0,6 C 92 % 1003,8 hPa 0,0 l/m 0,0 km/h (0 Bft) N 0 0 min 0,000 mm 7 W/m -0,7 C 0,4 C 0,0 km/h (0 Bft) 100 %
05.02.2017 08:10 0,3 C 0,2 C 0,4 C 92 % 1003,8 hPa 0,0 l/m 0,0 km/h (0 Bft) N 0 0 min 0,000 mm 11 W/m -0,8 C 0,3 C 0,0 km/h (0 Bft) 100 %
05.02.2017 08:20 0,1 C 0,1 C 0,3 C 92 % 1003,7 hPa 0,0 l/m 0,0 km/h (0 Bft) N 0 0 min 0,000 mm 16 W/m -1,0 C 0,1 C 0,0 km/h (0 Bft) 100 %
05.02.2017 08:30 0,0 C 0,0 C 0,1 C 92 % 1003,8 hPa 0,0 l/m 0,0 km/h (0 Bft) N 0 0 min 0,000 mm 21 W/m -1,1 C 0,0 C 0,0 km/h (0 Bft) 100 %
05.02.2017 08:40 -0,1 C -0,1 C 0,0 C 92 % 1003,9 hPa 0,0 l/m 0,0 km/h (0 Bft) N 0 0 min 0,000 mm 23 W/m -1,2 C -0,1 C 0,0 km/h (0 Bft) 100 %
05.02.2017 08:50 -0,1 C -0,2 C -0,1 C 92 % 1004,0 hPa 0,0 l/m 0,0 km/h (0 Bft) S-SW 202 0 min 0,000 mm 33 W/m -1,2 C -0,1 C 3,2 km/h (1 Bft) 100 %
05.02.2017 09:00 0,2 C -0,1 C 0,2 C 92 % 1003,8 hPa 0,0 l/m 0,0 km/h (0 Bft) SW 225 0 min 0,000 mm 137 W/m -0,9 C 0,2 C 3,2 km/h (1 Bft) 100 %
05.02.2017 09:10 0,8 C 0,3 C 0,8 C 92 % 1003,6 hPa 0,0 l/m 0,0 km/h (0 Bft) NW 315 10 min 0,000 mm 169 W/m -0,3 C 0,8 C 8,0 km/h (2 Bft) 100 %
05.02.2017 09:20 1,3 C 0,8 C 1,3 C 92 % 1003,3 hPa 0,0 l/m 1,6 km/h (1 Bft) NW 315 10 min 0,000 mm 172 W/m 0,1 C 1,3 C 6,4 km/h (2 Bft) 100 %
05.02.2017 09:30 1,4 C 1,3 C 1,4 C 92 % 1003,3 hPa 0,0 l/m 0,0 km/h (0 Bft) NW 315 10 min 0,000 mm 179 W/m 0,2 C 1,4 C 4,8 km/h (1 Bft) 100 %
05.02.2017 09:40 1,4 C 1,4 C 1,4 C 92 % 1003,0 hPa 0,0 l/m 0,0 km/h (0 Bft) N 0 0 min 0,000 mm 114 W/m 0,2 C 1,4 C 0,0 km/h (0 Bft) 100 %
05.02.2017 09:50 1,4 C 1,4 C 1,4 C 92 % 1003,0 hPa 0,0 l/m 0,0 km/h (0 Bft) N 0 0 min 0,000 mm 102 W/m 0,2 C 1,4 C 0,0 km/h (0 Bft) 100 %
05.02.2017 10:00 1,5 C 1,4 C 1,5 C 92 % 1003,0 hPa 0,0 l/m 0,0 km/h (0 Bft) NW 315 0 min 0,051 mm 116 W/m 0,3 C 1,5 C 1,6 km/h (1 Bft) 100 %
05.02.2017 10:10 1,8 C 1,5 C 1,8 C 92 % 1002,9 hPa 0,0 l/m 0,0 km/h (0 Bft) NW 315 10 min 0,000 mm 153 W/m 0,6 C 1,8 C 4,8 km/h (1 Bft) 100 %
05.02.2017 10:20 2,2 C 1,8 C 2,2 C 92 % 1003,0 hPa 0,0 l/m 1,6 km/h (1 Bft) NW 315 10 min 0,000 mm 156 W/m 1,0 C 2,2 C 4,8 km/h (1 Bft) 100 %
05.02.2017 10:30 2,6 C 2,2 C 2,6 C 92 % 1003,0 hPa 0,0 l/m 1,6 km/h (1 Bft) NW 315 10 min 0,000 mm 186 W/m 1,4 C 2,6 C 4,8 km/h (1 Bft) 90 %
05.02.2017 10:40 3,1 C 2,6 C 3,1 C 92 % 1002,9 hPa 0,0 l/m 0,0 km/h (0 Bft) NW 315 10 min 0,000 mm 230 W/m 1,9 C 3,1 C 3,2 km/h (1 Bft) 100 %
05.02.2017 10:50 3,9 C 3,1 C 3,9 C 92 % 1002,8 hPa 0,0 l/m 0,0 km/h (0 Bft) N 0 10 min 0,000 mm 271 W/m 2,7 C 3,9 C 0,0 km/h (0 Bft) 100 %
05.02.2017 11:00 4,5 C 3,9 C 4,6 C 90 % 1002,8 hPa 0,0 l/m 0,0 km/h (0 Bft) NW 315 10 min 0,076 mm 214 W/m 3,0 C 4,5 C 3,2 km/h (1 Bft) 100 %
05.02.2017 11:10 4,8 C 4,6 C 4,8 C 88 % 1002,8 hPa 0,0 l/m 0,0 km/h (0 Bft) N 0 10 min 0,000 mm 167 W/m 3,0 C 4,8 C 0,0 km/h (0 Bft) 100 %
05.02.2017 11:20 5,1 C 4,8 C 5,1 C 86 % 1002,8 hPa 0,0 l/m 0,0 km/h (0 Bft) N-NW 337 10 min 0,000 mm 158 W/m 3,0 C 5,1 C 1,6 km/h (1 Bft) 100 %
05.02.2017 11:30 5,3 C 5,1 C 5,3 C 86 % 1002,7 hPa 0,0 l/m 1,6 km/h (1 Bft) N-NW 337 10 min 0,000 mm 160 W/m 3,2 C 5,3 C 4,8 km/h (1 Bft) 100 %
05.02.2017 11:40 5,3 C 5,3 C 5,3 C 83 % 1002,7 hPa 0,0 l/m 0,0 km/h (0 Bft) N-NW 337 0 min 0,000 mm 148 W/m 2,7 C 5,3 C 3,2 km/h (1 Bft) 100 %
05.02.2017 11:50 5,4 C 5,3 C 5,4 C 81 % 1002,6 hPa 0,0 l/m 0,0 km/h (0 Bft) O 90 0 min 0,000 mm 137 W/m 2,4 C 5,4 C 6,4 km/h (2 Bft) 100 %
05.02.2017 12:10 5,7 C 5,3 C 5,7 C 82 % 1002,4 hPa 0,0 l/m 0,0 km/h (0 Bft) O-SO 115 0 min 0,027 mm 125 W/m 2,9 C 5,7 C 0,0 km/h (0 Bft) 99 %
05.02.2017 12:20 5,8 C 5,7 C 5,8 C 80 % 1002,4 hPa 0,0 l/m 0,0 km/h (0 Bft) O-SO 115 0 min 0,000 mm 128 W/m 2,6 C 5,8 C 0,0 km/h (0 Bft) 100 %
05.02.2017 12:30 5,9 C 5,8 C 5,9 C 83 % 1002,2 hPa 0,0 l/m 0,0 km/h (0 Bft) O-SO 115 0 min 0,000 mm 132 W/m 3,2 C 5,9 C 0,0 km/h (0 Bft) 100 %
05.02.2017 12:40 5,9 C 5,9 C 5,9 C 83 % 1002,1 hPa 0,0 l/m 0,0 km/h (0 Bft) O-SO 109 0 min 0,000 mm 144 W/m 3,2 C 5,9 C 1,6 km/h (1 Bft) 100 %
05.02.2017 12:50 5,9 C 5,9 C 5,9 C 84 % 1001,8 hPa 0,0 l/m 0,1 km/h (0 Bft) O-SO 103 10 min 0,000 mm 163 W/m 3,4 C 5,9 C 3,2 km/h (1 Bft) 100 %
05.02.2017 13:00 6,0 C 5,9 C 6,0 C 84 % 1001,8 hPa 0,0 l/m 1,7 km/h (1 Bft) O-NO 69 10 min 0,051 mm 181 W/m 3,5 C 6,0 C 6,4 km/h (2 Bft) 100 %
05.02.2017 13:10 6,2 C 6,0 C 6,2 C 84 % 1001,5 hPa 0,0 l/m 0,0 km/h (0 Bft) O-NO 68 10 min 0,000 mm 193 W/m 3,7 C 6,2 C 1,6 km/h (1 Bft) 100 %
05.02.2017 13:20 6,4 C 6,2 C 6,4 C 83 % 1001,6 hPa 0,0 l/m 0,2 km/h (0 Bft) O-NO 65 10 min 0,000 mm 250 W/m 3,7 C 6,4 C 4,8 km/h (1 Bft) 100 %
05.02.2017 13:30 6,8 C 6,4 C 6,8 C 80 % 1001,9 hPa 0,0 l/m 1,1 km/h (1 Bft) S-SO 162 10 min 0,000 mm 174 W/m 3,6 C 6,8 C 6,4 km/h (2 Bft) 100 %
05.02.2017 13:40 7,2 C 6,8 C 7,2 C 77 % 1001,9 hPa 0,0 l/m 1,9 km/h (1 Bft) S 191 10 min 0,000 mm 176 W/m 3,4 C 7,2 C 6,4 km/h (2 Bft) 91 %
05.02.2017 13:50 7,3 C 7,2 C 7,3 C 76 % 1002,0 hPa 0,0 l/m 1,4 km/h (1 Bft) SO 141 0 min 0,000 mm 141 W/m 3,4 C 7,3 C 8,0 km/h (2 Bft) 100 %
05.02.2017 14:00 7,4 C 7,3 C 7,4 C 76 % 1001,9 hPa 0,0 l/m 0,3 km/h (0 Bft) SO 128 0 min 0,076 mm 139 W/m 3,5 C 7,4 C 4,8 km/h (1 Bft) 100 %
05.02.2017 14:10 7,5 C 7,4 C 7,5 C 75 % 1001,6 hPa 0,0 l/m 0,1 km/h (0 Bft) O-SO 113 0 min 0,000 mm 144 W/m 3,4 C 7,5 C 3,2 km/h (1 Bft) 100 %
05.02.2017 14:20 7,6 C 7,5 C 7,6 C 75 % 1001,6 hPa 0,0 l/m 0,5 km/h (0 Bft) SO 128 0 min 0,000 mm 142 W/m 3,5 C 7,6 C 8,0 km/h (2 Bft) 100 %
05.02.2017 14:30 7,7 C 7,6 C 7,7 C 75 % 1001,6 hPa 0,0 l/m 0,0 km/h (0 Bft) SO 128 0 min 0,000 mm 148 W/m 3,6 C 7,7 C 0,0 km/h (0 Bft) 100 %
05.02.2017 14:40 7,8 C 7,7 C 7,8 C 73 % 1001,6 hPa 0,0 l/m 0,0 km/h (0 Bft) SO 128 0 min 0,000 mm 132 W/m 3,3 C 7,8 C 0,0 km/h (0 Bft) 100 %
05.02.2017 14:50 7,9 C 7,8 C 7,9 C 74 % 1001,6 hPa 0,0 l/m 0,0 km/h (0 Bft) SO 128 0 min 0,000 mm 132 W/m 3,6 C 7,9 C 1,6 km/h (1 Bft) 100 %
05.02.2017 15:00 8,0 C 7,9 C 8,0 C 75 % 1001,6 hPa 0,0 l/m 0,0 km/h (0 Bft) SO 128 0 min 0,051 mm 116 W/m 3,8 C 8,0 C 1,6 km/h (1 Bft) 91 %
05.02.2017 15:10 8,0 C 7,9 C 8,0 C 75 % 1001,5 hPa 0,0 l/m 0,0 km/h (0 Bft) SO 128 0 min 0,000 mm 109 W/m 3,8 C 8,0 C 0,0 km/h (0 Bft) 100 %
05.02.2017 15:20 7,9 C 7,9 C 8,0 C 75 % 1001,4 hPa 0,0 l/m 0,0 km/h (0 Bft) SO 128 0 min 0,000 mm 98 W/m 3,7 C 7,9 C 0,0 km/h (0 Bft) 100 %
05.02.2017 15:30 7,9 C 7,9 C 7,9 C 76 % 1001,4 hPa 0,0 l/m 0,0 km/h (0 Bft) SO 128 0 min 0,000 mm 81 W/m 3,9 C 7,9 C 0,0 km/h (0 Bft) 100 %
05.02.2017 15:40 7,7 C 7,7 C 7,9 C 76 % 1001,3 hPa 0,0 l/m 0,0 km/h (0 Bft) SO 128 0 min 0,000 mm 72 W/m 3,7 C 7,7 C 1,6 km/h (1 Bft) 100 %
05.02.2017 15:50 7,6 C 7,6 C 7,7 C 77 % 1001,3 hPa 0,0 l/m 0,0 km/h (0 Bft) SO 128 0 min 0,000 mm 54 W/m 3,8 C 7,6 C 0,0 km/h (0 Bft) 100 %
05.02.2017 16:00 7,4 C 7,4 C 7,6 C 77 % 1001,3 hPa 0,0 l/m 0,6 km/h (0 Bft) SO 128 0 min 0,051 mm 42 W/m 3,6 C 7,4 C 3,2 km/h (1 Bft) 100 %
05.02.2017 16:10 7,3 C 7,3 C 7,4 C 77 % 1001,2 hPa 0,0 l/m 0,6 km/h (0 Bft) SO 128 0 min 0,000 mm 47 W/m 3,5 C 7,3 C 4,8 km/h (1 Bft) 100 %
05.02.2017 16:20 7,2 C 7,2 C 7,3 C 77 % 1001,4 hPa 0,0 l/m 0,0 km/h (0 Bft) SO 128 0 min 0,000 mm 51 W/m 3,4 C 7,2 C 1,6 km/h (1 Bft) 99 %
05.02.2017 16:30 7,1 C 7,1 C 7,2 C 77 % 1001,4 hPa 0,0 l/m 0,0 km/h (0 Bft) SO 128 0 min 0,000 mm 40 W/m 3,3 C 7,1 C 0,0 km/h (0 Bft) 100 %
05.02.2017 16:40 7,1 C 7,1 C 7,1 C 77 % 1001,5 hPa 0,0 l/m 0,3 km/h (0 Bft) O-SO 111 0 min 0,000 mm 23 W/m 3,3 C 7,1 C 4,8 km/h (1 Bft) 100 %
05.02.2017 16:50 7,0 C 7,0 C 7,1 C 77 % 1001,6 hPa 0,0 l/m 0,8 km/h (0 Bft) O 101 0 min 0,000 mm 18 W/m 3,2 C 7,0 C 4,8 km/h (1 Bft) 100 %
05.02.2017 17:00 6,9 C 6,9 C 7,0 C 78 % 1001,8 hPa 0,0 l/m 0,3 km/h (0 Bft) O 82 0 min 0,025 mm 12 W/m 3,3 C 6,9 C 4,8 km/h (1 Bft) 100 %
05.02.2017 17:10 6,9 C 6,9 C 6,9 C 78 % 1001,9 hPa 0,0 l/m 0,6 km/h (0 Bft) O 99 0 min 0,000 mm 5 W/m 3,3 C 6,9 C 4,8 km/h (1 Bft) 100 %
05.02.2017 17:20 6,9 C 6,9 C 6,9 C 77 % 1002,3 hPa 0,0 l/m 0,5 km/h (0 Bft) O-SO 111 0 min 0,000 mm 0 W/m 3,2 C 6,9 C 6,4 km/h (2 Bft) 100 %
05.02.2017 17:30 6,9 C 6,9 C 6,9 C 78 % 1002,3 hPa 0,0 l/m 0,0 km/h (0 Bft) O-SO 107 0 min 0,000 mm 0 W/m 3,3 C 6,9 C 1,6 km/h (1 Bft) 100 %
05.02.2017 17:40 6,8 C 6,8 C 6,9 C 79 % 1002,4 hPa 0,2 l/m 1,4 km/h (1 Bft) O 86 0 min 0,000 mm 0 W/m 3,4 C 6,8 C 6,4 km/h (2 Bft) 100 %
05.02.2017 17:50 6,6 C 6,6 C 6,8 C 79 % 1002,5 hPa 0,0 l/m 1,2 km/h (1 Bft) O-NO 71 0 min 0,000 mm 0 W/m 3,2 C 6,6 C 6,4 km/h (2 Bft) 100 %
05.02.2017 18:00 6,5 C 6,5 C 6,6 C 78 % 1002,6 hPa 0,0 l/m 0,5 km/h (0 Bft) O-NO 72 0 min 0,000 mm 0 W/m 2,9 C 6,5 C 3,2 km/h (1 Bft) 100 %
05.02.2017 18:10 6,6 C 6,5 C 6,6 C 77 % 1002,6 hPa 0,0 l/m 0,0 km/h (0 Bft) O-NO 76 0 min 0,000 mm 0 W/m 2,9 C 6,6 C 1,6 km/h (1 Bft) 100 %
05.02.2017 18:20 6,6 C 6,6 C 6,6 C 77 % 1002,7 hPa 0,0 l/m 0,7 km/h (0 Bft) O-SO 111 0 min 0,000 mm 0 W/m 2,9 C 6,6 C 8,0 km/h (2 Bft) 100 %
05.02.2017 18:30 6,6 C 6,6 C 6,7 C 78 % 1002,8 hPa 0,0 l/m 0,1 km/h (0 Bft) O-SO 109 0 min 0,000 mm 0 W/m 3,0 C 6,6 C 3,2 km/h (1 Bft) 100 %
05.02.2017 18:40 6,5 C 6,5 C 6,6 C 79 % 1002,8 hPa 0,0 l/m 0,5 km/h (0 Bft) NO 48 0 min 0,000 mm 0 W/m 3,1 C 6,5 C 4,8 km/h (1 Bft) 100 %
05.02.2017 18:50 6,4 C 6,4 C 6,6 C 79 % 1002,9 hPa 0,0 l/m 0,1 km/h (0 Bft) NO 51 0 min 0,000 mm 0 W/m 3,0 C 6,4 C 3,2 km/h (1 Bft) 100 %
05.02.2017 19:00 6,3 C 6,3 C 6,4 C 80 % 1002,9 hPa 0,0 l/m 0,0 km/h (0 Bft) NO 51 0 min 0,025 mm 0 W/m 3,1 C 6,3 C 1,6 km/h (1 Bft) 100 %
05.02.2017 19:10 6,2 C 6,2 C 6,3 C 80 % 1003,0 hPa 0,0 l/m 0,0 km/h (0 Bft) NO 51 0 min 0,000 mm 0 W/m 3,0 C 6,2 C 0,0 km/h (0 Bft) 100 %
05.02.2017 19:20 6,1 C 6,1 C 6,2 C 79 % 1002,8 hPa 0,0 l/m 0,0 km/h (0 Bft) NO 51 0 min 0,000 mm 0 W/m 2,7 C 6,1 C 0,0 km/h (0 Bft) 99 %
05.02.2017 19:30 6,0 C 6,0 C 6,1 C 80 % 1003,0 hPa 0,0 l/m 0,0 km/h (0 Bft) NO 51 0 min 0,000 mm 0 W/m 2,8 C 6,0 C 0,0 km/h (0 Bft) 100 %
05.02.2017 19:40 5,9 C 5,9 C 6,0 C 79 % 1002,9 hPa 0,0 l/m 0,0 km/h (0 Bft) NO 51 0 min 0,000 mm 0 W/m 2,5 C 5,9 C 0,0 km/h (0 Bft) 100 %
05.02.2017 19:50 5,9 C 5,8 C 5,9 C 79 % 1003,1 hPa 0,0 l/m 0,2 km/h (0 Bft) NO 52 0 min 0,000 mm 0 W/m 2,5 C 5,9 C 4,8 km/h (1 Bft) 100 %
05.02.2017 20:00 6,0 C 5,9 C 6,0 C 78 % 1003,2 hPa 0,0 l/m 2,4 km/h (1 Bft) NO 44 0 min 0,026 mm 0 W/m 2,5 C 6,0 C 4,8 km/h (1 Bft) 100 %
05.02.2017 20:10 6,0 C 6,0 C 6,0 C 79 % 1003,3 hPa 0,0 l/m 2,3 km/h (1 Bft) NO 44 0 min 0,000 mm 0 W/m 2,6 C 6,0 C 6,4 km/h (2 Bft) 100 %
05.02.2017 20:20 6,0 C 6,0 C 6,0 C 79 % 1003,3 hPa 0,0 l/m 1,0 km/h (0 Bft) N-NO 33 0 min 0,000 mm 0 W/m 2,6 C 6,0 C 8,0 km/h (2 Bft) 100 %
05.02.2017 20:30 5,8 C 5,8 C 6,0 C 81 % 1003,4 hPa 0,0 l/m 0,0 km/h (0 Bft) N-NO 33 0 min 0,000 mm 0 W/m 2,8 C 5,8 C 1,6 km/h (1 Bft) 100 %
05.02.2017 20:40 5,6 C 5,6 C 5,8 C 82 % 1003,5 hPa 0,0 l/m 1,8 km/h (1 Bft) N-NO 33 0 min 0,000 mm 0 W/m 2,8 C 5,6 C 4,8 km/h (1 Bft) 100 %
05.02.2017 20:50 5,4 C 5,4 C 5,6 C 83 % 1003,6 hPa 0,0 l/m 2,4 km/h (1 Bft) N-NO 33 0 min 0,000 mm 0 W/m 2,7 C 5,4 C 4,8 km/h (1 Bft) 100 %
05.02.2017 21:00 5,3 C 5,3 C 5,4 C 83 % 1003,6 hPa 0,0 l/m 0,0 km/h (0 Bft) N-NO 33 0 min 0,000 mm 0 W/m 2,7 C 5,3 C 1,6 km/h (1 Bft) 100 %
05.02.2017 21:10 5,2 C 5,2 C 5,3 C 84 % 1003,7 hPa 0,0 l/m 0,0 km/h (0 Bft) N 0 0 min 0,000 mm 0 W/m 2,7 C 5,2 C 0,0 km/h (0 Bft) 97 %
05.02.2017 21:20 5,1 C 5,1 C 5,2 C 84 % 1003,9 hPa 0,0 l/m 0,0 km/h (0 Bft) N 0 0 min 0,000 mm 0 W/m 2,6 C 5,1 C 0,0 km/h (0 Bft) 97 %
05.02.2017 21:30 5,0 C 5,0 C 5,1 C 85 % 1003,9 hPa 0,0 l/m 0,0 km/h (0 Bft) N 0 0 min 0,000 mm 0 W/m 2,7 C 5,0 C 0,0 km/h (0 Bft) 98 %
05.02.2017 21:40 4,9 C 4,9 C 5,0 C 85 % 1004,1 hPa 0,0 l/m 0,0 km/h (0 Bft) N 0 0 min 0,000 mm 0 W/m 2,6 C 4,9 C 0,0 km/h (0 Bft) 98 %
05.02.2017 21:50 4,8 C 4,8 C 4,9 C 86 % 1004,1 hPa 0,0 l/m 0,0 km/h (0 Bft) N 0 0 min 0,000 mm 0 W/m 2,7 C 4,8 C 0,0 km/h (0 Bft) 97 %
05.02.2017 22:00 4,6 C 4,6 C 4,8 C 86 % 1004,2 hPa 0,0 l/m 0,0 km/h (0 Bft) N 0 0 min 0,000 mm 0 W/m 2,5 C 4,6 C 0,0 km/h (0 Bft) 98 %
05.02.2017 22:10 4,5 C 4,5 C 4,6 C 86 % 1004,3 hPa 0,0 l/m 0,0 km/h (0 Bft) N-NO 22 0 min 0,000 mm 0 W/m 2,4 C 4,5 C 4,8 km/h (1 Bft) 98 %
05.02.2017 22:20 4,4 C 4,4 C 4,5 C 87 % 1004,4 hPa 0,0 l/m 0,0 km/h (0 Bft) N-NO 22 0 min 0,000 mm 0 W/m 2,4 C 4,4 C 4,8 km/h (1 Bft) 97 %
05.02.2017 22:30 4,3 C 4,3 C 4,4 C 87 % 1004,5 hPa 0,0 l/m 1,6 km/h (1 Bft) N-NO 22 0 min 0,000 mm 0 W/m 2,3 C 4,3 C 4,8 km/h (1 Bft) 88 %
05.02.2017 22:40 4,2 C 4,2 C 4,3 C 87 % 1004,5 hPa 0,0 l/m 0,0 km/h (0 Bft) N-NO 22 0 min 0,000 mm 0 W/m 2,2 C 4,2 C 4,8 km/h (1 Bft) 98 %
05.02.2017 22:50 4,1 C 4,1 C 4,2 C 87 % 1004,6 hPa 0,0 l/m 0,0 km/h (0 Bft) N 0 0 min 0,000 mm 0 W/m 2,1 C 4,1 C 0,0 km/h (0 Bft) 97 %
05.02.2017 23:00 4,1 C 4,1 C 4,1 C 87 % 1004,6 hPa 0,0 l/m 1,6 km/h (1 Bft) N-NO 22 0 min 0,000 mm 0 W/m 2,1 C 4,1 C 4,8 km/h (1 Bft) 98 %
05.02.2017 23:10 4,0 C 4,0 C 4,1 C 87 % 1004,8 hPa 0,0 l/m 3,2 km/h (1 Bft) N-NO 22 0 min 0,000 mm 0 W/m 2,0 C 4,0 C 4,8 km/h (1 Bft) 97 %
05.02.2017 23:20 3,9 C 3,9 C 4,0 C 87 % 1004,8 hPa 0,0 l/m 0,0 km/h (0 Bft) N-NO 22 0 min 0,000 mm 0 W/m 1,9 C 3,9 C 1,6 km/h (1 Bft) 98 %
05.02.2017 23:30 3,8 C 3,8 C 3,9 C 87 % 1004,8 hPa 0,0 l/m 0,0 km/h (0 Bft) N-NO 22 0 min 0,000 mm 0 W/m 1,8 C 3,8 C 1,6 km/h (1 Bft) 97 %
05.02.2017 23:40 3,7 C 3,7 C 3,8 C 87 % 1004,9 hPa 0,0 l/m 0,0 km/h (0 Bft) N 0 0 min 0,000 mm 0 W/m 1,7 C 3,7 C 0,0 km/h (0 Bft) 97 %
05.02.2017 23:50 3,6 C 3,6 C 3,7 C 88 % 1004,9 hPa 0,0 l/m 0,0 km/h (0 Bft) N 0 0 min 0,000 mm 0 W/m 1,8 C 3,6 C 0,0 km/h (0 Bft) 98 %
_ Min-Zeit 08:50 08:50 08:50 14:40 16:10 - 05:20 - - - - - 08:40 00:40 06:10 22:30
Minimum _ -0,2 C -0,2 C -0,1 C 73 % 1001,2 hPa - 0,0 km/h (0 Bft) - - - - - -1,2 C -4,5 C 0,0 km/h (0 Bft) 88 %
_ Max-Zeit 15:00 15:00 15:00 06:20 03:50 17:40 00:40 - - 09:10 11:00 10:50 15:30 15:00 00:20 00:00
Maximum _ 8,0 C 7,9 C 8,0 C 92 % 1005,0 hPa 0,2 l/m 22,5 km/h
SW (4 Bft)
- - 10 min 0,076 mm 271 W/m 3,9 C 8,0 C 45,1 km/h
SW (6 Bft)
100 %
Durchschnitt _ 4,6 C 4,6 C 4,7 C 85 % 1003,4 hPa #0,2 l/m 3,2 km/h (1 Bft) SW - #3:00 h #0,559 mm 118 W/m 2,4 C 3,6 C 8,7 km/h (2 Bft) 99 %
PRIVATE WETTERSTATION BILLIGHEIM-ALLFELD - www.neckar-odenwald-wetter.de - Holger Sonntag